sensor_id;sensor_type;location;lat;lon;timestamp;pressure;altitude;pressure_sealevel;temperature;humidity
35551;BME280;21655;46.056;13.616;2022-08-19T10:31:30;99691.41;;;25.95;85.78
35551;BME280;21655;46.056;13.616;2022-08-19T10:33:57;99689.13;;;24.96;92.42
35551;BME280;21655;46.056;13.616;2022-08-19T10:36:32;99677.66;;;24.27;98.11
35551;BME280;21655;46.056;13.616;2022-08-19T10:39:00;99669.19;;;23.82;100.00
35551;BME280;21655;46.056;13.616;2022-08-19T10:41:36;99670.56;;;23.75;100.00
35551;BME280;21655;46.056;13.616;2022-08-19T10:44:05;99681.25;;;23.38;100.00
35551;BME280;21655;46.056;13.616;2022-08-19T10:46:32;99662.28;;;23.28;100.00
35551;BME280;21655;46.056;13.616;2022-08-19T10:49:00;99647.75;;;23.05;100.00
35551;BME280;21655;46.056;13.616;2022-08-19T10:51:26;99641.22;;;22.95;100.00
35551;BME280;21655;46.056;13.616;2022-08-19T10:54:10;99657.06;;;22.96;100.00
35551;BME280;21655;46.056;13.616;2022-08-19T10:56:36;99646.88;;;22.90;100.00
35551;BME280;21655;46.056;13.616;2022-08-19T10:59:24;99641.25;;;23.09;100.00
35551;BME280;21655;46.056;13.616;2022-08-19T11:01:51;99640.75;;;23.12;100.00
35551;BME280;21655;46.056;13.616;2022-08-19T11:04:18;99648.69;;;23.20;100.00
35551;BME280;21655;46.056;13.616;2022-08-19T11:06:45;99656.00;;;23.11;100.00
35551;BME280;21655;46.056;13.616;2022-08-19T11:09:16;99641.53;;;23.03;100.00
35551;BME280;21655;46.056;13.616;2022-08-19T11:11:42;99647.75;;;22.95;100.00
35551;BME280;21655;46.056;13.616;2022-08-19T11:14:12;99636.69;;;22.89;100.00
35551;BME280;21655;46.056;13.616;2022-08-19T11:16:39;99641.47;;;22.78;100.00
35551;BME280;21655;46.056;13.616;2022-08-19T11:19:06;99649.31;;;22.71;100.00
35551;BME280;21655;46.056;13.616;2022-08-19T11:21:35;99642.22;;;22.64;100.00
35551;BME280;21655;46.056;13.616;2022-08-19T11:24:08;99627.25;;;22.68;100.00
35551;BME280;21655;46.056;13.616;2022-08-19T11:26:34;99644.53;;;22.77;100.00
35551;BME280;21655;46.056;13.616;2022-08-19T11:29:01;99672.81;;;22.77;100.00
35551;BME280;21655;46.056;13.616;2022-08-19T11:31:29;99696.81;;;22.69;100.00
35551;BME280;21655;46.056;13.616;2022-08-19T11:33:57;99727.88;;;22.59;100.00
35551;BME280;21655;46.056;13.616;2022-08-19T11:36:25;99761.13;;;22.47;100.00
35551;BME280;21655;46.056;13.616;2022-08-19T11:38:50;99790.09;;;22.33;100.00
35551;BME280;21655;46.056;13.616;2022-08-19T11:41:18;99809.25;;;22.26;100.00
35551;BME280;21655;46.056;13.616;2022-08-19T11:43:44;99777.06;;;22.32;100.00
35551;BME280;21655;46.056;13.616;2022-08-19T11:46:12;99760.78;;;22.80;100.00
35551;BME280;21655;46.056;13.616;2022-08-19T11:48:38;99765.38;;;23.52;100.00
35551;BME280;21655;46.056;13.616;2022-08-19T11:51:07;99785.81;;;23.79;100.00
35551;BME280;21655;46.056;13.616;2022-08-19T11:53:34;99793.59;;;24.24;100.00
35551;BME280;21655;46.056;13.616;2022-08-19T11:56:00;99782.25;;;24.69;100.00
35551;BME280;21655;46.056;13.616;2022-08-19T11:58:26;99770.47;;;25.83;100.00
35551;BME280;21655;46.056;13.616;2022-08-19T12:00:53;99767.53;;;27.69;97.19
35551;BME280;21655;46.056;13.616;2022-08-19T12:03:18;99766.69;;;28.93;88.88
35551;BME280;21655;46.056;13.616;2022-08-19T12:05:47;99779.28;;;28.92;84.40
35551;BME280;21655;46.056;13.616;2022-08-19T12:08:13;99782.34;;;27.89;81.09
35551;BME280;21655;46.056;13.616;2022-08-19T12:10:40;99787.50;;;26.65;87.52
35551;BME280;21655;46.056;13.616;2022-08-19T12:13:08;99769.63;;;27.17;89.74
35551;BME280;21655;46.056;13.616;2022-08-19T12:15:38;99760.00;;;27.36;92.68
35551;BME280;21655;46.056;13.616;2022-08-19T12:18:06;99761.91;;;26.94;91.44
35551;BME280;21655;46.056;13.616;2022-08-19T12:20:35;99764.97;;;27.67;89.40
35551;BME280;21655;46.056;13.616;2022-08-19T12:23:01;99754.84;;;28.35;85.48
35551;BME280;21655;46.056;13.616;2022-08-19T12:25:26;99755.00;;;28.44;78.26
35551;BME280;21655;46.056;13.616;2022-08-19T12:27:52;99764.88;;;28.33;77.64
35551;BME280;21655;46.056;13.616;2022-08-19T12:30:17;99759.22;;;28.28;80.83
35551;BME280;21655;46.056;13.616;2022-08-19T12:32:43;99747.72;;;28.01;79.05
35551;BME280;21655;46.056;13.616;2022-08-19T12:35:09;99738.28;;;27.82;79.44
35551;BME280;21655;46.056;13.616;2022-08-19T12:37:35;99726.31;;;28.35;81.35
35551;BME280;21655;46.056;13.616;2022-08-19T12:40:01;99728.50;;;28.57;77.00
35551;BME280;21655;46.056;13.616;2022-08-19T12:42:28;99725.19;;;28.50;76.80
35551;BME280;21655;46.056;13.616;2022-08-19T12:44:54;99725.94;;;28.42;79.41
35551;BME280;21655;46.056;13.616;2022-08-19T12:47:20;99716.88;;;28.03;76.67
35551;BME280;21655;46.056;13.616;2022-08-19T12:49:46;99711.63;;;27.91;78.83
35551;BME280;21655;46.056;13.616;2022-08-19T12:52:12;99713.81;;;27.39;80.16
35551;BME280;21655;46.056;13.616;2022-08-19T12:54:41;99721.31;;;27.30;82.26
35551;BME280;21655;46.056;13.616;2022-08-19T12:57:07;99729.56;;;27.08;81.87
35551;BME280;21655;46.056;13.616;2022-08-19T12:59:34;99728.47;;;27.04;82.21
35551;BME280;21655;46.056;13.616;2022-08-19T13:02:05;99730.78;;;26.45;84.77
35551;BME280;21655;46.056;13.616;2022-08-19T13:04:32;99718.59;;;26.68;83.62
35551;BME280;21655;46.056;13.616;2022-08-19T13:07:00;99713.53;;;26.94;83.10
35551;BME280;21655;46.056;13.616;2022-08-19T13:09:26;99704.75;;;27.14;81.79
35551;BME280;21655;46.056;13.616;2022-08-19T13:11:52;99709.84;;;27.17;78.84
35551;BME280;21655;46.056;13.616;2022-08-19T13:14:18;99700.72;;;27.38;81.21
35551;BME280;21655;46.056;13.616;2022-08-19T13:16:44;99695.81;;;27.43;79.53
35551;BME280;21655;46.056;13.616;2022-08-19T13:19:09;99683.00;;;27.41;75.98
35551;BME280;21655;46.056;13.616;2022-08-19T13:21:36;99682.75;;;27.19;77.33
35551;BME280;21655;46.056;13.616;2022-08-19T13:24:01;99680.41;;;27.44;76.02
35551;BME280;21655;46.056;13.616;2022-08-19T13:26:27;99669.47;;;27.51;76.98
35551;BME280;21655;46.056;13.616;2022-08-19T13:28:53;99670.78;;;27.59;75.31
35551;BME280;21655;46.056;13.616;2022-08-19T13:31:40;99676.84;;;27.52;75.77
35551;BME280;21655;46.056;13.616;2022-08-19T13:34:31;99667.25;;;27.85;76.49
35551;BME280;21655;46.056;13.616;2022-08-19T13:36:58;99674.16;;;27.61;74.09
35551;BME280;21655;46.056;13.616;2022-08-19T13:39:24;99673.69;;;27.35;73.05
35551;BME280;21655;46.056;13.616;2022-08-19T13:41:50;99677.56;;;27.44;73.13
35551;BME280;21655;46.056;13.616;2022-08-19T13:44:16;99673.25;;;27.84;73.33
35551;BME280;21655;46.056;13.616;2022-08-19T13:46:46;99667.09;;;27.95;70.91
35551;BME280;21655;46.056;13.616;2022-08-19T13:49:13;99679.72;;;28.08;71.34
35551;BME280;21655;46.056;13.616;2022-08-19T13:51:40;99680.41;;;28.00;70.30
35551;BME280;21655;46.056;13.616;2022-08-19T13:54:06;99679.34;;;28.28;68.47
35551;BME280;21655;46.056;13.616;2022-08-19T13:56:34;99676.38;;;28.38;68.82
35551;BME280;21655;46.056;13.616;2022-08-19T13:59:00;99685.13;;;28.41;68.32
35551;BME280;21655;46.056;13.616;2022-08-19T14:01:25;99675.97;;;28.44;67.89
35551;BME280;21655;46.056;13.616;2022-08-19T14:03:51;99681.34;;;28.46;67.94
35551;BME280;21655;46.056;13.616;2022-08-19T14:06:18;99672.91;;;28.54;67.28
35551;BME280;21655;46.056;13.616;2022-08-19T14:08:44;99672.25;;;28.44;67.56
35551;BME280;21655;46.056;13.616;2022-08-19T14:11:10;99678.19;;;28.61;66.97
35551;BME280;21655;46.056;13.616;2022-08-19T14:13:36;99675.94;;;28.90;66.25
35551;BME280;21655;46.056;13.616;2022-08-19T14:16:07;99674.00;;;28.72;65.69
35551;BME280;21655;46.056;13.616;2022-08-19T14:18:33;99677.19;;;28.84;64.87
35551;BME280;21655;46.056;13.616;2022-08-19T14:20:59;99675.94;;;29.03;63.93
35551;BME280;21655;46.056;13.616;2022-08-19T14:23:25;99668.53;;;29.02;63.01
35551;BME280;21655;46.056;13.616;2022-08-19T14:25:50;99666.75;;;29.20;62.63
35551;BME280;21655;46.056;13.616;2022-08-19T14:28:16;99659.44;;;29.00;62.75
35551;BME280;21655;46.056;13.616;2022-08-19T14:30:42;99665.66;;;29.16;63.36
35551;BME280;21655;46.056;13.616;2022-08-19T14:33:09;99662.91;;;29.37;61.88
35551;BME280;21655;46.056;13.616;2022-08-19T14:35:36;99662.78;;;29.42;60.13
35551;BME280;21655;46.056;13.616;2022-08-19T14:38:04;99665.97;;;29.54;61.86
35551;BME280;21655;46.056;13.616;2022-08-19T14:40:31;99661.63;;;29.57;60.23
35551;BME280;21655;46.056;13.616;2022-08-19T14:43:01;99653.38;;;29.42;60.25
35551;BME280;21655;46.056;13.616;2022-08-19T14:45:37;99650.44;;;29.33;59.99
35551;BME280;21655;46.056;13.616;2022-08-19T14:48:03;99638.44;;;29.45;60.07
35551;BME280;21655;46.056;13.616;2022-08-19T14:50:29;99639.25;;;29.72;61.75
35551;BME280;21655;46.056;13.616;2022-08-19T14:53:08;99639.19;;;29.86;61.05
35551;BME280;21655;46.056;13.616;2022-08-19T14:55:34;99640.28;;;29.76;61.41
35551;BME280;21655;46.056;13.616;2022-08-19T14:57:59;99635.88;;;29.70;62.33
35551;BME280;21655;46.056;13.616;2022-08-19T15:00:26;99630.97;;;29.71;60.21
35551;BME280;21655;46.056;13.616;2022-08-19T15:02:51;99625.47;;;29.74;62.33
35551;BME280;21655;46.056;13.616;2022-08-19T15:05:18;99631.25;;;29.61;60.13
35551;BME280;21655;46.056;13.616;2022-08-19T15:07:44;99619.53;;;29.71;60.54
35551;BME280;21655;46.056;13.616;2022-08-19T15:10:10;99616.22;;;29.77;61.98
35551;BME280;21655;46.056;13.616;2022-08-19T15:12:38;99613.44;;;29.86;64.25
35551;BME280;21655;46.056;13.616;2022-08-19T15:15:11;99611.09;;;29.88;66.29
35551;BME280;21655;46.056;13.616;2022-08-19T15:17:38;99614.81;;;29.66;65.23
35551;BME280;21655;46.056;13.616;2022-08-19T15:20:06;99602.72;;;29.69;68.26
35551;BME280;21655;46.056;13.616;2022-08-19T15:22:32;99610.88;;;29.62;68.25
35551;BME280;21655;46.056;13.616;2022-08-19T15:24:57;99609.25;;;29.48;66.45
35551;BME280;21655;46.056;13.616;2022-08-19T15:27:23;99608.69;;;29.46;62.92
35551;BME280;21655;46.056;13.616;2022-08-19T15:29:49;99610.31;;;29.38;67.89
35551;BME280;21655;46.056;13.616;2022-08-19T15:32:14;99609.34;;;29.43;69.14
35551;BME280;21655;46.056;13.616;2022-08-19T15:34:40;99603.81;;;29.60;66.44
35551;BME280;21655;46.056;13.616;2022-08-19T15:37:05;99607.47;;;29.74;67.00
35551;BME280;21655;46.056;13.616;2022-08-19T15:39:31;99599.72;;;29.74;67.52
35551;BME280;21655;46.056;13.616;2022-08-19T15:41:57;99608.06;;;29.84;66.64
35551;BME280;21655;46.056;13.616;2022-08-19T15:44:25;99605.28;;;29.93;67.45
35551;BME280;21655;46.056;13.616;2022-08-19T15:46:51;99604.88;;;29.86;67.98
35551;BME280;21655;46.056;13.616;2022-08-19T15:49:18;99608.69;;;29.59;68.04
35551;BME280;21655;46.056;13.616;2022-08-19T15:51:46;99617.38;;;29.54;68.72
35551;BME280;21655;46.056;13.616;2022-08-19T15:54:15;99622.91;;;29.37;67.69
35551;BME280;21655;46.056;13.616;2022-08-19T15:56:41;99618.75;;;29.43;67.92
35551;BME280;21655;46.056;13.616;2022-08-19T15:59:30;99619.72;;;29.52;70.36
35551;BME280;21655;46.056;13.616;2022-08-19T16:02:16;99624.94;;;29.23;69.93
35551;BME280;21655;46.056;13.616;2022-08-19T16:05:00;99613.31;;;29.20;69.25
35551;BME280;21655;46.056;13.616;2022-08-19T16:07:45;99630.16;;;29.08;67.67
35551;BME280;21655;46.056;13.616;2022-08-19T16:10:12;99630.25;;;28.90;68.27
35551;BME280;21655;46.056;13.616;2022-08-19T16:12:38;99634.38;;;28.84;68.33
35551;BME280;21655;46.056;13.616;2022-08-19T16:15:07;99642.06;;;28.70;68.45
35551;BME280;21655;46.056;13.616;2022-08-19T16:17:33;99639.22;;;28.70;69.06
35551;BME280;21655;46.056;13.616;2022-08-19T16:20:00;99638.47;;;28.78;70.90
35551;BME280;21655;46.056;13.616;2022-08-19T16:22:30;99640.50;;;28.77;71.60
35551;BME280;21655;46.056;13.616;2022-08-19T16:24:57;99641.84;;;28.66;72.21
35551;BME280;21655;46.056;13.616;2022-08-19T16:27:22;99646.16;;;28.64;72.63
35551;BME280;21655;46.056;13.616;2022-08-19T16:29:47;99645.56;;;28.67;72.92
35551;BME280;21655;46.056;13.616;2022-08-19T16:32:14;99650.53;;;28.61;71.48
35551;BME280;21655;46.056;13.616;2022-08-19T16:34:41;99659.56;;;28.36;72.70
35551;BME280;21655;46.056;13.616;2022-08-19T16:37:07;99653.25;;;28.21;74.27
35551;BME280;21655;46.056;13.616;2022-08-19T16:39:34;99641.22;;;27.92;80.38
35551;BME280;21655;46.056;13.616;2022-08-19T16:41:59;99650.53;;;27.60;84.63
35551;BME280;21655;46.056;13.616;2022-08-19T16:44:25;99647.38;;;27.43;87.83
35551;BME280;21655;46.056;13.616;2022-08-19T16:46:52;99644.50;;;27.25;88.08
35551;BME280;21655;46.056;13.616;2022-08-19T16:49:18;99636.72;;;27.12;90.68
35551;BME280;21655;46.056;13.616;2022-08-19T16:51:43;99646.81;;;27.00;92.88
35551;BME280;21655;46.056;13.616;2022-08-19T16:54:09;99652.94;;;26.88;94.76
35551;BME280;21655;46.056;13.616;2022-08-19T16:56:35;99650.22;;;26.78;96.85
35551;BME280;21655;46.056;13.616;2022-08-19T16:59:01;99655.84;;;26.60;99.27
35551;BME280;21655;46.056;13.616;2022-08-19T17:01:27;99648.34;;;26.40;100.00
35551;BME280;21655;46.056;13.616;2022-08-19T17:03:54;99645.25;;;26.37;100.00
35551;BME280;21655;46.056;13.616;2022-08-19T17:06:22;99638.56;;;26.23;100.00
35551;BME280;21655;46.056;13.616;2022-08-19T17:08:52;99658.28;;;26.14;100.00
35551;BME280;21655;46.056;13.616;2022-08-19T17:11:20;99657.72;;;26.12;100.00
35551;BME280;21655;46.056;13.616;2022-08-19T17:13:47;99667.41;;;26.11;100.00
35551;BME280;21655;46.056;13.616;2022-08-19T17:16:14;99669.75;;;26.04;100.00
35551;BME280;21655;46.056;13.616;2022-08-19T17:18:40;99666.19;;;25.89;100.00
35551;BME280;21655;46.056;13.616;2022-08-19T17:21:05;99661.66;;;25.83;100.00
35551;BME280;21655;46.056;13.616;2022-08-19T17:23:30;99665.38;;;25.78;100.00
35551;BME280;21655;46.056;13.616;2022-08-19T17:25:56;99659.53;;;25.60;100.00
35551;BME280;21655;46.056;13.616;2022-08-19T17:28:26;99658.75;;;25.49;100.00
35551;BME280;21655;46.056;13.616;2022-08-19T17:30:52;99668.75;;;25.47;100.00
35551;BME280;21655;46.056;13.616;2022-08-19T17:33:20;99670.16;;;25.44;100.00
35551;BME280;21655;46.056;13.616;2022-08-19T17:35:45;99679.31;;;25.31;100.00
35551;BME280;21655;46.056;13.616;2022-08-19T17:38:17;99682.78;;;25.18;100.00
35551;BME280;21655;46.056;13.616;2022-08-19T17:40:43;99687.69;;;25.03;100.00
35551;BME280;21655;46.056;13.616;2022-08-19T17:43:11;99704.75;;;24.88;100.00
35551;BME280;21655;46.056;13.616;2022-08-19T17:45:40;99699.13;;;24.83;100.00
35551;BME280;21655;46.056;13.616;2022-08-19T17:48:06;99702.25;;;24.77;100.00
35551;BME280;21655;46.056;13.616;2022-08-19T17:50:33;99701.72;;;24.65;100.00
35551;BME280;21655;46.056;13.616;2022-08-19T17:52:59;99717.34;;;24.52;100.00
35551;BME280;21655;46.056;13.616;2022-08-19T17:55:25;99730.63;;;24.47;100.00
35551;BME280;21655;46.056;13.616;2022-08-19T17:57:51;99729.81;;;24.36;100.00
35551;BME280;21655;46.056;13.616;2022-08-19T18:00:18;99739.47;;;24.30;100.00
35551;BME280;21655;46.056;13.616;2022-08-19T18:05:09;99760.72;;;24.23;100.00
35551;BME280;21655;46.056;13.616;2022-08-19T18:07:35;99765.81;;;24.26;100.00
35551;BME280;21655;46.056;13.616;2022-08-19T18:10:00;99763.81;;;24.21;100.00
35551;BME280;21655;46.056;13.616;2022-08-19T18:12:26;99765.81;;;24.26;100.00
35551;BME280;21655;46.056;13.616;2022-08-19T18:14:51;99768.34;;;24.22;100.00
35551;BME280;21655;46.056;13.616;2022-08-19T18:17:17;99772.03;;;24.13;100.00
35551;BME280;21655;46.056;13.616;2022-08-19T18:19:45;99771.47;;;24.06;100.00
35551;BME280;21655;46.056;13.616;2022-08-19T18:22:20;99773.16;;;24.02;100.00
35551;BME280;21655;46.056;13.616;2022-08-19T18:24:50;99764.66;;;24.02;100.00
35551;BME280;21655;46.056;13.616;2022-08-19T18:27:15;99767.47;;;24.02;100.00
35551;BME280;21655;46.056;13.616;2022-08-19T18:29:41;99769.75;;;24.05;100.00
35551;BME280;21655;46.056;13.616;2022-08-19T18:32:07;99779.66;;;24.12;100.00
35551;BME280;21655;46.056;13.616;2022-08-19T18:34:36;99780.81;;;24.06;100.00
35551;BME280;21655;46.056;13.616;2022-08-19T18:37:03;99779.94;;;24.01;100.00
35551;BME280;21655;46.056;13.616;2022-08-19T18:39:28;99778.25;;;23.95;100.00
35551;BME280;21655;46.056;13.616;2022-08-19T18:42:16;99780.16;;;23.79;100.00
35551;BME280;21655;46.056;13.616;2022-08-19T18:45:00;99790.34;;;23.75;100.00
35551;BME280;21655;46.056;13.616;2022-08-19T18:47:44;99788.66;;;23.79;100.00
35551;BME280;21655;46.056;13.616;2022-08-19T18:50:28;99777.03;;;23.71;100.00
35551;BME280;21655;46.056;13.616;2022-08-19T18:52:53;99780.41;;;23.68;100.00
35551;BME280;21655;46.056;13.616;2022-08-19T18:55:19;99782.41;;;23.67;100.00
35551;BME280;21655;46.056;13.616;2022-08-19T18:57:46;99788.91;;;23.63;100.00
35551;BME280;21655;46.056;13.616;2022-08-19T19:00:13;99798.22;;;23.53;100.00
35551;BME280;21655;46.056;13.616;2022-08-19T19:02:39;99801.88;;;23.44;100.00
35551;BME280;21655;46.056;13.616;2022-08-19T19:05:05;99800.38;;;23.26;100.00
35551;BME280;21655;46.056;13.616;2022-08-19T19:07:31;99792.69;;;23.22;100.00
35551;BME280;21655;46.056;13.616;2022-08-19T19:09:57;99802.06;;;23.22;100.00
35551;BME280;21655;46.056;13.616;2022-08-19T19:12:23;99799.78;;;23.19;100.00
35551;BME280;21655;46.056;13.616;2022-08-19T19:14:54;99810.75;;;23.11;100.00
35551;BME280;21655;46.056;13.616;2022-08-19T19:17:22;99821.47;;;23.09;100.00
35551;BME280;21655;46.056;13.616;2022-08-19T19:19:51;99820.03;;;23.06;100.00
35551;BME280;21655;46.056;13.616;2022-08-19T19:22:18;99820.84;;;23.02;100.00
35551;BME280;21655;46.056;13.616;2022-08-19T19:24:45;99818.28;;;22.96;100.00
35551;BME280;21655;46.056;13.616;2022-08-19T19:27:13;99830.72;;;22.95;100.00
35551;BME280;21655;46.056;13.616;2022-08-19T19:29:40;99832.66;;;22.89;100.00
35551;BME280;21655;46.056;13.616;2022-08-19T19:32:10;99823.94;;;22.96;100.00
35551;BME280;21655;46.056;13.616;2022-08-19T19:34:40;99830.22;;;23.02;100.00
35551;BME280;21655;46.056;13.616;2022-08-19T19:37:06;99839.25;;;23.00;100.00
35551;BME280;21655;46.056;13.616;2022-08-19T19:39:31;99841.13;;;22.89;100.00
35551;BME280;21655;46.056;13.616;2022-08-19T19:41:57;99846.44;;;22.81;100.00
35551;BME280;21655;46.056;13.616;2022-08-19T19:44:22;99856.03;;;22.75;100.00
35551;BME280;21655;46.056;13.616;2022-08-19T19:46:48;99855.34;;;22.63;100.00
35551;BME280;21655;46.056;13.616;2022-08-19T19:49:13;99864.38;;;22.60;100.00
35551;BME280;21655;46.056;13.616;2022-08-19T19:51:40;99867.25;;;22.65;100.00
35551;BME280;21655;46.056;13.616;2022-08-19T19:54:06;99874.50;;;22.51;100.00
35551;BME280;21655;46.056;13.616;2022-08-19T19:56:32;99884.91;;;22.45;100.00
35551;BME280;21655;46.056;13.616;2022-08-19T19:58:58;99893.09;;;22.47;100.00
35551;BME280;21655;46.056;13.616;2022-08-19T20:01:26;99899.03;;;22.45;100.00
35551;BME280;21655;46.056;13.616;2022-08-19T20:03:52;99899.28;;;22.44;100.00
35551;BME280;21655;46.056;13.616;2022-08-19T20:06:18;99916.59;;;22.52;100.00
35551;BME280;21655;46.056;13.616;2022-08-19T20:08:45;99911.53;;;22.54;100.00
35551;BME280;21655;46.056;13.616;2022-08-19T20:11:32;99913.19;;;22.50;100.00
35551;BME280;21655;46.056;13.616;2022-08-19T20:14:01;99915.19;;;22.50;100.00
35551;BME280;21655;46.056;13.616;2022-08-19T20:16:28;99921.09;;;22.48;100.00
35551;BME280;21655;46.056;13.616;2022-08-19T20:18:55;99929.00;;;22.46;100.00
35551;BME280;21655;46.056;13.616;2022-08-19T20:21:22;99929.25;;;22.45;100.00
35551;BME280;21655;46.056;13.616;2022-08-19T20:23:48;99923.94;;;22.48;100.00
35551;BME280;21655;46.056;13.616;2022-08-19T20:26:13;99928.47;;;22.49;100.00
35551;BME280;21655;46.056;13.616;2022-08-19T20:28:45;99917.69;;;22.46;100.00
35551;BME280;21655;46.056;13.616;2022-08-19T20:31:10;99915.69;;;22.47;100.00
35551;BME280;21655;46.056;13.616;2022-08-19T20:33:35;99914.53;;;22.43;100.00
35551;BME280;21655;46.056;13.616;2022-08-19T20:36:01;99908.78;;;22.33;100.00
35551;BME280;21655;46.056;13.616;2022-08-19T20:38:27;99905.59;;;22.24;100.00
35551;BME280;21655;46.056;13.616;2022-08-19T20:40:52;99914.25;;;22.18;100.00
35551;BME280;21655;46.056;13.616;2022-08-19T20:43:18;99910.84;;;22.16;100.00
35551;BME280;21655;46.056;13.616;2022-08-19T20:45:43;99918.78;;;22.19;100.00
35551;BME280;21655;46.056;13.616;2022-08-19T20:48:09;99919.09;;;22.22;100.00
35551;BME280;21655;46.056;13.616;2022-08-19T20:50:36;99913.06;;;22.14;100.00
35551;BME280;21655;46.056;13.616;2022-08-19T20:53:13;99920.13;;;22.11;100.00
35551;BME280;21655;46.056;13.616;2022-08-19T20:55:42;99913.69;;;22.16;100.00
35551;BME280;21655;46.056;13.616;2022-08-19T20:58:08;99919.84;;;22.13;100.00
35551;BME280;21655;46.056;13.616;2022-08-19T21:00:37;99921.16;;;22.05;100.00
35551;BME280;21655;46.056;13.616;2022-08-19T21:03:04;99921.44;;;22.04;100.00
35551;BME280;21655;46.056;13.616;2022-08-19T21:05:29;99926.50;;;22.02;100.00
35551;BME280;21655;46.056;13.616;2022-08-19T21:07:54;99929.84;;;21.99;100.00
35551;BME280;21655;46.056;13.616;2022-08-19T21:10:20;99926.38;;;21.92;100.00
35551;BME280;21655;46.056;13.616;2022-08-19T21:12:45;99924.09;;;21.89;100.00
35551;BME280;21655;46.056;13.616;2022-08-19T21:15:11;99915.28;;;21.85;100.00
35551;BME280;21655;46.056;13.616;2022-08-19T21:17:36;99919.19;;;21.79;100.00
35551;BME280;21655;46.056;13.616;2022-08-19T21:20:03;99905.31;;;21.78;100.00
35551;BME280;21655;46.056;13.616;2022-08-19T21:22:30;99910.03;;;21.72;100.00
35551;BME280;21655;46.056;13.616;2022-08-19T21:24:56;99915.09;;;21.70;100.00
35551;BME280;21655;46.056;13.616;2022-08-19T21:27:21;99911.34;;;21.65;100.00
35551;BME280;21655;46.056;13.616;2022-08-19T21:29:47;99906.19;;;21.62;100.00
35551;BME280;21655;46.056;13.616;2022-08-19T21:32:13;99915.44;;;21.57;100.00
35551;BME280;21655;46.056;13.616;2022-08-19T21:34:38;99921.97;;;21.58;100.00
35551;BME280;21655;46.056;13.616;2022-08-19T21:37:04;99917.19;;;21.58;100.00
35551;BME280;21655;46.056;13.616;2022-08-19T21:39:29;99913.09;;;21.49;100.00
35551;BME280;21655;46.056;13.616;2022-08-19T21:41:55;99923.97;;;21.41;100.00
35551;BME280;21655;46.056;13.616;2022-08-19T21:44:21;99929.28;;;21.37;100.00
35551;BME280;21655;46.056;13.616;2022-08-19T21:46:47;99927.69;;;21.25;100.00
35551;BME280;21655;46.056;13.616;2022-08-19T21:49:12;99933.00;;;21.21;100.00
35551;BME280;21655;46.056;13.616;2022-08-19T21:51:38;99938.63;;;21.21;100.00
35551;BME280;21655;46.056;13.616;2022-08-19T21:54:04;99938.41;;;21.23;100.00
35551;BME280;21655;46.056;13.616;2022-08-19T21:56:29;99933.53;;;21.18;100.00
35551;BME280;21655;46.056;13.616;2022-08-19T21:58:55;99935.56;;;21.23;100.00
35551;BME280;21655;46.056;13.616;2022-08-19T22:01:21;99946.84;;;21.23;100.00
35551;BME280;21655;46.056;13.616;2022-08-19T22:03:46;99942.41;;;21.27;100.00
35551;BME280;21655;46.056;13.616;2022-08-19T22:06:12;99940.44;;;21.27;100.00
35551;BME280;21655;46.056;13.616;2022-08-19T22:08:38;99933.16;;;21.31;100.00
35551;BME280;21655;46.056;13.616;2022-08-19T22:11:05;99941.34;;;21.33;100.00
35551;BME280;21655;46.056;13.616;2022-08-19T22:13:34;99935.44;;;21.34;100.00
35551;BME280;21655;46.056;13.616;2022-08-19T22:16:04;99940.91;;;21.41;100.00
35551;BME280;21655;46.056;13.616;2022-08-19T22:18:30;99926.56;;;21.42;100.00
35551;BME280;21655;46.056;13.616;2022-08-19T22:20:55;99934.41;;;21.40;100.00
35551;BME280;21655;46.056;13.616;2022-08-19T22:23:21;99932.19;;;21.42;100.00
35551;BME280;21655;46.056;13.616;2022-08-19T22:25:46;99920.81;;;21.37;100.00
35551;BME280;21655;46.056;13.616;2022-08-19T22:28:14;99919.97;;;21.37;100.00
35551;BME280;21655;46.056;13.616;2022-08-19T22:30:41;99920.41;;;21.29;100.00
35551;BME280;21655;46.056;13.616;2022-08-19T22:33:10;99920.16;;;21.30;100.00
35551;BME280;21655;46.056;13.616;2022-08-19T22:35:38;99917.94;;;21.32;100.00
35551;BME280;21655;46.056;13.616;2022-08-19T22:38:06;99924.69;;;21.31;100.00
35551;BME280;21655;46.056;13.616;2022-08-19T22:40:33;99926.66;;;21.31;100.00
35551;BME280;21655;46.056;13.616;2022-08-19T22:43:13;99917.53;;;21.24;100.00
35551;BME280;21655;46.056;13.616;2022-08-19T22:45:39;99922.00;;;21.20;100.00
35551;BME280;21655;46.056;13.616;2022-08-19T22:48:07;99926.00;;;21.24;100.00
35551;BME280;21655;46.056;13.616;2022-08-19T22:50:35;99927.47;;;21.26;100.00
35551;BME280;21655;46.056;13.616;2022-08-19T22:53:02;99925.66;;;21.20;100.00
35551;BME280;21655;46.056;13.616;2022-08-19T22:55:32;99931.47;;;21.14;100.00
35551;BME280;21655;46.056;13.616;2022-08-19T22:57:58;99929.47;;;21.09;100.00
35551;BME280;21655;46.056;13.616;2022-08-19T23:00:25;99932.44;;;21.03;100.00
35551;BME280;21655;46.056;13.616;2022-08-19T23:02:52;99926.13;;;20.96;100.00
35551;BME280;21655;46.056;13.616;2022-08-19T23:05:20;99926.88;;;20.92;100.00
35551;BME280;21655;46.056;13.616;2022-08-19T23:07:46;99930.38;;;20.82;100.00
35551;BME280;21655;46.056;13.616;2022-08-19T23:10:12;99936.97;;;20.88;100.00
35551;BME280;21655;46.056;13.616;2022-08-19T23:12:42;99935.53;;;20.85;100.00
35551;BME280;21655;46.056;13.616;2022-08-19T23:15:20;99932.59;;;20.80;100.00
35551;BME280;21655;46.056;13.616;2022-08-19T23:17:51;99928.06;;;20.79;100.00